createdAt,value
2018-07-20T00:01:29.320Z,18.80
2018-07-20T00:03:57.835Z,18.70
2018-07-20T00:06:26.355Z,18.70
2018-07-20T00:11:23.111Z,18.50
2018-07-20T00:13:52.020Z,18.50
2018-07-20T00:16:20.515Z,18.40
2018-07-20T00:18:48.952Z,18.40
2018-07-20T00:21:17.412Z,18.40
2018-07-20T00:23:45.883Z,18.40
2018-07-20T00:26:14.334Z,18.30
2018-07-20T00:28:42.805Z,18.30
2018-07-20T00:31:11.221Z,18.20
2018-07-20T00:33:39.682Z,18.20
2018-07-20T00:36:08.216Z,18.10
2018-07-20T00:38:36.675Z,18.00
2018-07-20T00:41:05.163Z,18.00
2018-07-20T00:43:33.593Z,17.90
2018-07-20T00:46:02.044Z,17.90
2018-07-20T00:48:30.479Z,17.90
2018-07-20T00:50:58.969Z,17.90
2018-07-20T00:53:27.398Z,17.90
2018-07-20T00:55:55.907Z,17.90
2018-07-20T00:58:24.435Z,17.90
2018-07-20T01:00:52.915Z,17.90
2018-07-20T01:03:21.407Z,17.80
2018-07-20T01:05:49.926Z,17.80
2018-07-20T01:08:18.458Z,17.70
2018-07-20T01:10:46.939Z,17.60
2018-07-20T01:13:15.330Z,17.60
2018-07-20T01:15:43.804Z,17.60
2018-07-20T01:18:12.213Z,17.50
2018-07-20T01:20:40.620Z,17.50
2018-07-20T01:23:09.067Z,17.50
2018-07-20T01:25:37.547Z,17.40
2018-07-20T01:28:06.007Z,17.40
2018-07-20T01:30:34.456Z,17.30
2018-07-20T01:33:02.912Z,17.30
2018-07-20T01:35:31.371Z,17.30
2018-07-20T01:37:59.785Z,17.20
2018-07-20T01:40:28.438Z,17.10
2018-07-20T01:42:56.935Z,17.10
2018-07-20T01:45:25.335Z,17.20
2018-07-20T01:47:53.799Z,17.20
2018-07-20T01:50:22.268Z,17.20
2018-07-20T01:52:50.656Z,17.10
2018-07-20T01:55:19.115Z,17.00
2018-07-20T01:57:47.652Z,17.00
2018-07-20T02:02:44.363Z,16.90
2018-07-20T02:05:12.869Z,16.80
2018-07-20T02:07:41.508Z,16.80
2018-07-20T02:10:10.069Z,16.70
2018-07-20T02:12:38.571Z,16.70
2018-07-20T02:15:07.419Z,16.70
2018-07-20T02:17:35.941Z,16.70
2018-07-20T02:20:04.708Z,16.60
2018-07-20T02:22:33.260Z,16.50
2018-07-20T02:25:01.720Z,16.50
2018-07-20T02:27:30.274Z,16.40
2018-07-20T02:29:58.681Z,16.40
2018-07-20T02:32:27.161Z,16.30
2018-07-20T02:34:55.689Z,16.30
2018-07-20T02:37:24.519Z,16.30
2018-07-20T02:39:52.992Z,16.30
2018-07-20T02:42:21.445Z,16.30
2018-07-20T02:44:49.885Z,16.20
2018-07-20T02:47:18.369Z,16.30
2018-07-20T02:52:14.951Z,16.20
2018-07-20T02:54:43.407Z,16.20
2018-07-20T02:57:12.452Z,16.20
2018-07-20T03:02:09.135Z,16.10
2018-07-20T03:04:37.633Z,16.00
2018-07-20T03:07:06.157Z,16.00
2018-07-20T03:09:34.596Z,16.10
2018-07-20T03:12:03.029Z,16.00
2018-07-20T03:14:31.925Z,15.90
2018-07-20T03:17:00.320Z,15.80
2018-07-20T03:19:29.867Z,15.80
2018-07-20T03:21:58.264Z,15.80
2018-07-20T03:24:26.803Z,15.80
2018-07-20T03:26:55.340Z,15.80
2018-07-20T03:29:23.829Z,15.90
2018-07-20T03:31:52.261Z,15.90
2018-07-20T03:34:20.690Z,15.90
2018-07-20T03:36:49.175Z,15.90
2018-07-20T03:39:17.687Z,15.80
2018-07-20T03:41:46.144Z,15.80
2018-07-20T03:44:14.607Z,15.80
2018-07-20T03:46:43.352Z,15.90
2018-07-20T03:49:11.908Z,15.90
2018-07-20T03:51:40.476Z,15.90
2018-07-20T03:54:09.062Z,15.90
2018-07-20T03:56:37.681Z,16.00
2018-07-20T03:59:06.314Z,16.10
2018-07-20T04:01:34.895Z,16.20
2018-07-20T04:04:03.421Z,16.10
2018-07-20T04:06:31.948Z,16.00
2018-07-20T04:09:00.462Z,16.10
2018-07-20T04:11:28.978Z,16.20
2018-07-20T04:13:57.591Z,16.20
2018-07-20T04:16:26.207Z,16.40
2018-07-20T04:18:55.055Z,16.60
2018-07-20T04:21:23.810Z,16.60
2018-07-20T04:23:52.415Z,16.50
2018-07-20T04:26:21.081Z,16.70
2018-07-20T04:28:50.175Z,16.80
2018-07-20T04:31:18.877Z,16.80
2018-07-20T04:33:47.593Z,16.80
2018-07-20T04:36:16.267Z,17.10
2018-07-20T04:38:44.897Z,16.90
2018-07-20T04:41:13.506Z,17.00
2018-07-20T04:43:42.068Z,17.20
2018-07-20T04:46:10.502Z,17.30
2018-07-20T04:48:38.980Z,17.30
2018-07-20T04:51:07.653Z,17.30
2018-07-20T04:53:36.192Z,17.40
2018-07-20T04:56:04.806Z,17.10
2018-07-20T04:58:33.328Z,17.20
2018-07-20T05:01:01.938Z,17.30
2018-07-20T05:03:30.455Z,17.50
2018-07-20T05:05:59.041Z,17.60
2018-07-20T05:08:27.645Z,17.70
2018-07-20T05:10:56.259Z,18.00
2018-07-20T05:13:25.239Z,18.30
2018-07-20T05:15:53.886Z,18.20
2018-07-20T05:18:22.377Z,18.50
2018-07-20T05:20:51.295Z,19.40
2018-07-20T05:23:19.840Z,20.90
2018-07-20T05:25:48.445Z,22.70
2018-07-20T05:28:17.001Z,23.80
2018-07-20T05:30:45.395Z,24.60
2018-07-20T05:33:14.062Z,25.70
2018-07-20T05:35:42.694Z,26.90
2018-07-20T05:38:11.388Z,27.10
2018-07-20T05:43:08.202Z,28.50
2018-07-20T05:45:36.797Z,29.70
2018-07-20T05:48:05.915Z,29.70
2018-07-20T05:50:34.709Z,29.70
2018-07-20T05:53:03.438Z,30.00
2018-07-20T05:55:31.990Z,30.20
2018-07-20T05:58:00.516Z,30.30
2018-07-20T06:02:57.158Z,32.10
2018-07-20T06:05:25.658Z,32.00
2018-07-20T06:07:54.135Z,31.90
2018-07-20T06:10:22.631Z,32.20
2018-07-20T06:12:51.043Z,33.10
2018-07-20T06:15:19.753Z,32.70
2018-07-20T06:17:48.588Z,33.10
2018-07-20T06:20:17.029Z,34.60
2018-07-20T06:22:45.808Z,34.60
2018-07-20T06:25:14.479Z,34.50
2018-07-20T06:27:43.164Z,35.60
2018-07-20T06:30:11.834Z,34.30
2018-07-20T06:32:40.324Z,34.70
2018-07-20T06:35:08.821Z,35.40
2018-07-20T06:37:37.247Z,36.40
2018-07-20T06:40:05.740Z,34.70
2018-07-20T06:42:34.247Z,34.90
2018-07-20T06:45:02.790Z,36.10
2018-07-20T06:47:31.167Z,37.80
2018-07-20T06:49:59.769Z,39.60
2018-07-20T06:52:28.219Z,39.10
2018-07-20T06:57:25.112Z,37.40
2018-07-20T06:59:53.758Z,38.90
2018-07-20T07:02:22.217Z,39.70
2018-07-20T07:04:50.865Z,39.80
2018-07-20T07:07:19.542Z,40.50
2018-07-20T07:09:48.238Z,39.70
2018-07-20T07:12:17.071Z,39.20
2018-07-20T07:17:13.971Z,39.20
2018-07-20T07:19:42.838Z,39.50
2018-07-20T07:22:11.563Z,38.30
2018-07-20T07:24:40.286Z,38.90
2018-07-20T07:27:08.974Z,39.30
2018-07-20T07:29:37.663Z,38.40
2018-07-20T07:32:06.367Z,39.80
2018-07-20T07:34:34.995Z,40.20
2018-07-20T07:37:03.559Z,40.70
2018-07-20T07:39:32.268Z,39.20
2018-07-20T07:42:01.042Z,40.20
2018-07-20T07:44:29.776Z,40.10
2018-07-20T07:46:58.451Z,38.90
2018-07-20T07:51:55.391Z,41.10
2018-07-20T07:54:23.850Z,42.30
2018-07-20T07:56:52.440Z,42.20
2018-07-20T07:59:21.289Z,43.70
2018-07-20T08:01:50.025Z,44.20
2018-07-20T08:04:18.746Z,43.40
2018-07-20T08:06:47.335Z,41.30
2018-07-20T08:09:15.950Z,39.90
2018-07-20T08:14:13.860Z,43.30
2018-07-20T08:16:42.458Z,41.80
2018-07-20T08:19:11.154Z,42.10
2018-07-20T08:21:40.335Z,39.80
2018-07-20T08:24:08.993Z,38.70
2018-07-20T08:26:37.679Z,40.20
2018-07-20T08:29:06.315Z,40.80
2018-07-20T08:31:34.816Z,40.50
2018-07-20T08:34:03.465Z,41.60
2018-07-20T08:36:32.066Z,41.50
2018-07-20T08:39:00.643Z,43.50
2018-07-20T08:41:29.231Z,41.80
2018-07-20T08:43:57.886Z,40.30
2018-07-20T08:46:26.646Z,39.70
2018-07-20T08:48:55.119Z,40.70
2018-07-20T08:51:26.520Z,42.20
2018-07-20T08:53:55.191Z,43.20
2018-07-20T08:56:23.924Z,40.50
2018-07-20T08:58:52.777Z,38.80
2018-07-20T09:01:21.456Z,41.10
2018-07-20T09:03:50.031Z,41.20
2018-07-20T09:06:18.682Z,41.20
2018-07-20T09:08:47.320Z,41.00
2018-07-20T09:11:16.366Z,40.10
2018-07-20T09:13:45.243Z,39.00
2018-07-20T09:16:13.807Z,39.10
2018-07-20T09:18:42.481Z,40.00
2018-07-20T09:21:11.140Z,39.90
2018-07-20T09:23:39.655Z,41.00
2018-07-20T09:28:36.469Z,39.80
2018-07-20T09:31:05.272Z,40.40
2018-07-20T09:33:33.807Z,38.90
2018-07-20T09:36:02.312Z,38.00
2018-07-20T09:38:30.830Z,37.20
2018-07-20T09:40:59.402Z,37.50
2018-07-20T09:43:27.965Z,37.60
2018-07-20T09:45:56.481Z,37.60
2018-07-20T09:48:25.063Z,36.50
2018-07-20T09:50:53.845Z,36.10
2018-07-20T09:53:22.580Z,36.80
2018-07-20T09:55:51.196Z,36.60
2018-07-20T09:58:19.828Z,36.70
2018-07-20T10:00:49.212Z,36.30
2018-07-20T10:03:18.682Z,35.60
2018-07-20T10:05:47.937Z,35.10
2018-07-20T10:08:17.317Z,34.50
2018-07-20T10:10:46.348Z,35.00
2018-07-20T10:13:14.929Z,34.70
2018-07-20T10:15:45.050Z,34.50
2018-07-20T10:18:13.734Z,34.40
2018-07-20T10:20:42.351Z,34.00
2018-07-20T10:23:10.925Z,33.10
2018-07-20T10:25:39.617Z,32.10
2018-07-20T10:28:08.137Z,33.00
2018-07-20T10:30:37.242Z,33.20
2018-07-20T10:33:05.890Z,32.70
2018-07-20T10:35:34.327Z,31.50
2018-07-20T10:38:02.945Z,32.30
2018-07-20T10:40:31.455Z,31.80
2018-07-20T10:43:00.082Z,31.50
2018-07-20T10:45:28.691Z,31.70
2018-07-20T10:47:57.332Z,31.70
2018-07-20T10:50:25.806Z,31.00
2018-07-20T10:52:54.352Z,31.80
2018-07-20T10:55:22.847Z,31.90
2018-07-20T10:57:51.463Z,32.30
2018-07-20T11:00:20.019Z,31.90
2018-07-20T11:02:48.600Z,31.10
2018-07-20T11:05:18.489Z,31.80
2018-07-20T11:07:47.114Z,31.60
2018-07-20T11:10:15.581Z,31.80
2018-07-20T11:12:45.965Z,30.90
2018-07-20T11:15:21.267Z,31.10
2018-07-20T11:17:49.806Z,31.40
2018-07-20T11:20:18.499Z,31.00
2018-07-20T11:22:47.067Z,31.10
2018-07-20T11:25:15.833Z,31.00
2018-07-20T11:27:44.571Z,31.10
2018-07-20T11:30:13.093Z,31.10
2018-07-20T11:32:41.489Z,31.30
2018-07-20T11:35:15.635Z,31.20
2018-07-20T11:37:44.347Z,31.10
2018-07-20T11:40:14.866Z,31.40
2018-07-20T11:42:43.390Z,31.30
2018-07-20T11:45:12.037Z,31.20
2018-07-20T11:47:40.521Z,31.20
2018-07-20T11:50:09.136Z,31.20
2018-07-20T11:52:37.520Z,31.10
2018-07-20T11:55:06.025Z,30.30
2018-07-20T11:57:34.523Z,29.80
2018-07-20T12:00:03.005Z,30.30
2018-07-20T12:02:38.606Z,30.40
2018-07-20T12:05:13.089Z,30.50
2018-07-20T12:07:41.598Z,30.60
2018-07-20T12:10:10.850Z,30.10
2018-07-20T12:12:39.491Z,29.90
2018-07-20T12:15:08.363Z,29.60
2018-07-20T12:17:36.799Z,29.80
2018-07-20T12:20:05.458Z,30.30
2018-07-20T12:22:33.968Z,30.60
2018-07-20T12:25:02.466Z,30.60
2018-07-20T12:27:31.007Z,30.90
2018-07-20T12:29:59.744Z,31.10
2018-07-20T12:32:28.183Z,30.60
2018-07-20T12:34:56.787Z,30.70
2018-07-20T12:37:27.072Z,31.40
2018-07-20T12:39:56.637Z,31.30
2018-07-20T12:42:25.153Z,31.60
2018-07-20T12:44:59.587Z,31.70
2018-07-20T12:47:28.110Z,31.60
2018-07-20T12:49:57.076Z,31.60
2018-07-20T12:52:25.532Z,31.30
2018-07-20T12:54:53.959Z,31.60
2018-07-20T12:57:22.411Z,31.50
2018-07-20T12:59:50.768Z,31.50
2018-07-20T13:02:19.276Z,31.40
2018-07-20T13:07:15.891Z,31.50
2018-07-20T13:09:44.591Z,31.20
2018-07-20T13:12:13.267Z,31.30
2018-07-20T13:17:09.997Z,31.50
2018-07-20T13:19:38.534Z,31.30
2018-07-20T13:24:37.500Z,30.40
2018-07-20T13:27:05.971Z,30.40
2018-07-20T13:29:34.390Z,30.50
2018-07-20T13:32:03.298Z,30.50
2018-07-20T13:34:31.780Z,30.60
2018-07-20T13:37:00.455Z,30.60
2018-07-20T13:39:29.154Z,30.50
2018-07-20T13:41:57.519Z,30.60
2018-07-20T13:44:25.875Z,30.70
2018-07-20T13:46:54.440Z,30.60
2018-07-20T13:49:22.930Z,30.50
2018-07-20T13:51:51.462Z,30.80
2018-07-20T13:54:19.856Z,30.50
2018-07-20T13:56:48.591Z,30.40
2018-07-20T13:59:17.676Z,30.60
2018-07-20T14:01:46.427Z,30.50
2018-07-20T14:04:15.018Z,30.30
2018-07-20T14:06:43.621Z,30.50
2018-07-20T14:09:12.421Z,30.70
2018-07-20T14:11:42.078Z,31.10
2018-07-20T14:14:10.838Z,31.10
2018-07-20T14:16:39.430Z,30.90
2018-07-20T14:19:08.143Z,31.10
2018-07-20T14:21:36.757Z,30.80
2018-07-20T14:24:05.312Z,30.60
2018-07-20T14:29:02.177Z,30.80
2018-07-20T14:31:30.862Z,30.80
2018-07-20T14:33:59.778Z,30.50
2018-07-20T14:36:28.420Z,30.20
2018-07-20T14:38:57.034Z,30.00
2018-07-20T14:41:25.636Z,29.50
2018-07-20T14:43:54.220Z,29.70
2018-07-20T14:46:22.936Z,30.10
2018-07-20T14:48:51.664Z,30.30
2018-07-20T15:49:36.259Z,29.90
2018-07-20T16:04:04.718Z,29.60
2018-07-20T16:20:40.409Z,29.00
2018-07-20T16:23:09.065Z,29.10
